sensor_id;sensor_type;location;lat;lon;timestamp;temperature;humidity
3275;DHT22;1649;53.672;10.064;2022-09-03T00:01:17;15.00;99.90
3275;DHT22;1649;53.672;10.064;2022-09-03T00:03:46;15.00;99.90
3275;DHT22;1649;53.672;10.064;2022-09-03T00:06:20;14.90;99.90
3275;DHT22;1649;53.672;10.064;2022-09-03T00:09:23;14.90;99.90
3275;DHT22;1649;53.672;10.064;2022-09-03T00:12:00;14.90;99.90
3275;DHT22;1649;53.672;10.064;2022-09-03T00:14:35;14.90;99.90
3275;DHT22;1649;53.672;10.064;2022-09-03T00:17:06;14.90;99.90
3275;DHT22;1649;53.672;10.064;2022-09-03T00:19:42;14.90;99.90
3275;DHT22;1649;53.672;10.064;2022-09-03T00:22:18;14.90;99.90
3275;DHT22;1649;53.672;10.064;2022-09-03T00:24:45;14.90;99.90
3275;DHT22;1649;53.672;10.064;2022-09-03T00:27:19;14.90;99.90
3275;DHT22;1649;53.672;10.064;2022-09-03T00:29:51;14.90;99.90
3275;DHT22;1649;53.672;10.064;2022-09-03T00:32:25;15.00;99.90
3275;DHT22;1649;53.672;10.064;2022-09-03T00:34:56;14.90;99.90
3275;DHT22;1649;53.672;10.064;2022-09-03T00:37:24;15.00;99.90
3275;DHT22;1649;53.672;10.064;2022-09-03T00:39:51;14.80;99.90
3275;DHT22;1649;53.672;10.064;2022-09-03T00:42:46;14.80;99.90
3275;DHT22;1649;53.672;10.064;2022-09-03T00:45:43;14.70;99.90
3275;DHT22;1649;53.672;10.064;2022-09-03T00:48:29;14.70;99.90
3275;DHT22;1649;53.672;10.064;2022-09-03T00:51:32;14.70;99.90
3275;DHT22;1649;53.672;10.064;2022-09-03T00:57:06;14.70;99.90
3275;DHT22;1649;53.672;10.064;2022-09-03T00:59:44;14.70;99.90
3275;DHT22;1649;53.672;10.064;2022-09-03T01:08:06;14.60;99.90
3275;DHT22;1649;53.672;10.064;2022-09-03T01:13:32;14.60;99.90
3275;DHT22;1649;53.672;10.064;2022-09-03T01:16:25;14.70;99.90
3275;DHT22;1649;53.672;10.064;2022-09-03T01:21:48;14.70;99.90
3275;DHT22;1649;53.672;10.064;2022-09-03T01:29:35;14.80;99.90
3275;DHT22;1649;53.672;10.064;2022-09-03T01:32:09;14.80;99.90
3275;DHT22;1649;53.672;10.064;2022-09-03T01:34:58;14.80;99.90
3275;DHT22;1649;53.672;10.064;2022-09-03T01:45:52;14.90;99.90
3275;DHT22;1649;53.672;10.064;2022-09-03T01:48:41;14.80;99.90
3275;DHT22;1649;53.672;10.064;2022-09-03T01:51:24;14.70;99.90
3275;DHT22;1649;53.672;10.064;2022-09-03T01:59:36;14.50;99.90
3275;DHT22;1649;53.672;10.064;2022-09-03T02:02:07;14.50;99.90
3275;DHT22;1649;53.672;10.064;2022-09-03T02:04:35;14.40;99.90
3275;DHT22;1649;53.672;10.064;2022-09-03T02:07:01;14.40;99.90
3275;DHT22;1649;53.672;10.064;2022-09-03T02:09:27;14.30;99.90
3275;DHT22;1649;53.672;10.064;2022-09-03T02:11:57;14.30;99.90
3275;DHT22;1649;53.672;10.064;2022-09-03T02:14:28;14.20;99.90
3275;DHT22;1649;53.672;10.064;2022-09-03T02:16:55;14.30;99.90
3275;DHT22;1649;53.672;10.064;2022-09-03T02:19:22;14.20;99.90
3275;DHT22;1649;53.672;10.064;2022-09-03T02:21:51;14.20;99.90
3275;DHT22;1649;53.672;10.064;2022-09-03T02:24:17;14.20;99.90
3275;DHT22;1649;53.672;10.064;2022-09-03T02:26:43;14.10;99.90
3275;DHT22;1649;53.672;10.064;2022-09-03T02:29:09;14.10;99.90
3275;DHT22;1649;53.672;10.064;2022-09-03T02:31:35;14.10;99.90
3275;DHT22;1649;53.672;10.064;2022-09-03T02:34:00;14.10;99.90
3275;DHT22;1649;53.672;10.064;2022-09-03T02:36:30;14.10;99.90
3275;DHT22;1649;53.672;10.064;2022-09-03T02:38:56;14.10;99.90
3275;DHT22;1649;53.672;10.064;2022-09-03T02:41:22;14.10;99.90
3275;DHT22;1649;53.672;10.064;2022-09-03T02:44:08;14.00;99.90
3275;DHT22;1649;53.672;10.064;2022-09-03T02:46:49;13.90;99.90
3275;DHT22;1649;53.672;10.064;2022-09-03T02:49:16;13.90;99.90
3275;DHT22;1649;53.672;10.064;2022-09-03T02:51:43;13.80;99.90
3275;DHT22;1649;53.672;10.064;2022-09-03T02:54:09;13.80;99.90
3275;DHT22;1649;53.672;10.064;2022-09-03T02:56:36;13.80;99.90
3275;DHT22;1649;53.672;10.064;2022-09-03T02:59:03;13.80;99.90
3275;DHT22;1649;53.672;10.064;2022-09-03T03:01:29;13.80;99.90
3275;DHT22;1649;53.672;10.064;2022-09-03T03:03:54;13.80;99.90
3275;DHT22;1649;53.672;10.064;2022-09-03T03:06:20;13.80;99.90
3275;DHT22;1649;53.672;10.064;2022-09-03T03:08:47;13.80;99.90
3275;DHT22;1649;53.672;10.064;2022-09-03T03:11:14;13.70;99.90
3275;DHT22;1649;53.672;10.064;2022-09-03T03:13:43;13.70;99.90
3275;DHT22;1649;53.672;10.064;2022-09-03T03:16:09;13.70;99.90
3275;DHT22;1649;53.672;10.064;2022-09-03T03:18:35;13.70;99.90
3275;DHT22;1649;53.672;10.064;2022-09-03T03:21:05;13.70;99.90
3275;DHT22;1649;53.672;10.064;2022-09-03T03:23:32;13.70;99.90
3275;DHT22;1649;53.672;10.064;2022-09-03T03:26:05;13.70;99.90
3275;DHT22;1649;53.672;10.064;2022-09-03T03:28:31;13.70;99.90
3275;DHT22;1649;53.672;10.064;2022-09-03T03:33:30;13.70;99.90
3275;DHT22;1649;53.672;10.064;2022-09-03T03:35:55;13.70;99.90
3275;DHT22;1649;53.672;10.064;2022-09-03T03:38:21;13.70;99.90
3275;DHT22;1649;53.672;10.064;2022-09-03T03:40:46;13.60;99.90
3275;DHT22;1649;53.672;10.064;2022-09-03T03:43:12;13.50;99.90
3275;DHT22;1649;53.672;10.064;2022-09-03T03:45:37;13.50;99.90
3275;DHT22;1649;53.672;10.064;2022-09-03T03:48:03;13.50;99.90
3275;DHT22;1649;53.672;10.064;2022-09-03T03:50:28;13.50;99.90
3275;DHT22;1649;53.672;10.064;2022-09-03T03:52:54;13.50;99.90
3275;DHT22;1649;53.672;10.064;2022-09-03T03:55:19;13.50;99.90
3275;DHT22;1649;53.672;10.064;2022-09-03T03:57:45;13.50;99.90
3275;DHT22;1649;53.672;10.064;2022-09-03T04:00:11;13.40;99.90
3275;DHT22;1649;53.672;10.064;2022-09-03T04:02:36;13.30;99.90
3275;DHT22;1649;53.672;10.064;2022-09-03T04:05:02;13.30;99.90
3275;DHT22;1649;53.672;10.064;2022-09-03T04:07:27;13.20;99.90
3275;DHT22;1649;53.672;10.064;2022-09-03T04:09:53;13.20;99.90
3275;DHT22;1649;53.672;10.064;2022-09-03T04:12:19;13.10;99.90
3275;DHT22;1649;53.672;10.064;2022-09-03T04:14:44;13.20;99.90
3275;DHT22;1649;53.672;10.064;2022-09-03T04:17:09;13.20;99.90
3275;DHT22;1649;53.672;10.064;2022-09-03T04:19:35;13.30;99.90
3275;DHT22;1649;53.672;10.064;2022-09-03T04:22:01;13.20;99.90
3275;DHT22;1649;53.672;10.064;2022-09-03T04:24:27;13.10;99.90
3275;DHT22;1649;53.672;10.064;2022-09-03T04:26:53;13.10;99.90
3275;DHT22;1649;53.672;10.064;2022-09-03T04:29:19;13.10;99.90
3275;DHT22;1649;53.672;10.064;2022-09-03T04:31:46;13.20;99.90
3275;DHT22;1649;53.672;10.064;2022-09-03T04:34:30;13.20;99.90
3275;DHT22;1649;53.672;10.064;2022-09-03T04:36:55;13.30;99.90
3275;DHT22;1649;53.672;10.064;2022-09-03T04:39:23;13.30;99.90
3275;DHT22;1649;53.672;10.064;2022-09-03T04:41:49;13.20;99.90
3275;DHT22;1649;53.672;10.064;2022-09-03T04:44:15;13.30;99.90
3275;DHT22;1649;53.672;10.064;2022-09-03T04:46:40;13.20;99.90
3275;DHT22;1649;53.672;10.064;2022-09-03T04:49:06;13.20;99.90
3275;DHT22;1649;53.672;10.064;2022-09-03T04:51:34;13.20;99.90
3275;DHT22;1649;53.672;10.064;2022-09-03T04:54:02;13.20;99.90
3275;DHT22;1649;53.672;10.064;2022-09-03T04:56:29;13.20;99.90
3275;DHT22;1649;53.672;10.064;2022-09-03T04:58:58;13.30;99.90
3275;DHT22;1649;53.672;10.064;2022-09-03T05:01:26;13.20;99.90
3275;DHT22;1649;53.672;10.064;2022-09-03T05:03:52;13.40;99.90
3275;DHT22;1649;53.672;10.064;2022-09-03T05:06:18;13.40;99.90
3275;DHT22;1649;53.672;10.064;2022-09-03T05:08:48;13.40;99.90
3275;DHT22;1649;53.672;10.064;2022-09-03T05:11:14;13.50;99.90
3275;DHT22;1649;53.672;10.064;2022-09-03T05:13:40;13.50;99.90
3275;DHT22;1649;53.672;10.064;2022-09-03T05:16:08;13.60;99.90
3275;DHT22;1649;53.672;10.064;2022-09-03T05:18:34;13.50;99.90
3275;DHT22;1649;53.672;10.064;2022-09-03T05:21:05;13.50;99.90
3275;DHT22;1649;53.672;10.064;2022-09-03T05:23:31;13.60;99.90
3275;DHT22;1649;53.672;10.064;2022-09-03T05:25:59;13.60;99.90
3275;DHT22;1649;53.672;10.064;2022-09-03T05:28:29;13.60;99.90
3275;DHT22;1649;53.672;10.064;2022-09-03T05:33:24;13.70;99.90
3275;DHT22;1649;53.672;10.064;2022-09-03T05:35:49;13.70;99.90
3275;DHT22;1649;53.672;10.064;2022-09-03T05:38:15;13.70;99.90
3275;DHT22;1649;53.672;10.064;2022-09-03T05:40:42;13.70;99.90
3275;DHT22;1649;53.672;10.064;2022-09-03T05:43:07;13.70;99.90
3275;DHT22;1649;53.672;10.064;2022-09-03T05:45:33;13.80;99.90
3275;DHT22;1649;53.672;10.064;2022-09-03T05:47:59;13.80;99.90
3275;DHT22;1649;53.672;10.064;2022-09-03T05:50:25;13.70;99.90
3275;DHT22;1649;53.672;10.064;2022-09-03T05:52:51;13.70;99.90
3275;DHT22;1649;53.672;10.064;2022-09-03T05:55:17;13.80;99.90
3275;DHT22;1649;53.672;10.064;2022-09-03T05:57:43;14.00;99.90
3275;DHT22;1649;53.672;10.064;2022-09-03T06:00:10;14.00;99.90
3275;DHT22;1649;53.672;10.064;2022-09-03T06:02:36;14.10;99.90
3275;DHT22;1649;53.672;10.064;2022-09-03T06:05:02;14.10;99.90
3275;DHT22;1649;53.672;10.064;2022-09-03T06:07:27;14.20;99.90
3275;DHT22;1649;53.672;10.064;2022-09-03T06:09:53;14.30;99.90
3275;DHT22;1649;53.672;10.064;2022-09-03T06:12:19;14.40;99.90
3275;DHT22;1649;53.672;10.064;2022-09-03T06:14:44;14.50;99.90
3275;DHT22;1649;53.672;10.064;2022-09-03T06:17:10;14.70;99.90
3275;DHT22;1649;53.672;10.064;2022-09-03T06:19:37;14.80;99.90
3275;DHT22;1649;53.672;10.064;2022-09-03T06:22:02;15.10;99.90
3275;DHT22;1649;53.672;10.064;2022-09-03T06:24:28;15.50;99.90
3275;DHT22;1649;53.672;10.064;2022-09-03T06:26:57;15.90;99.90
3275;DHT22;1649;53.672;10.064;2022-09-03T06:29:22;16.10;99.40
3275;DHT22;1649;53.672;10.064;2022-09-03T06:31:48;16.60;99.20
3275;DHT22;1649;53.672;10.064;2022-09-03T06:34:15;17.60;97.70
3275;DHT22;1649;53.672;10.064;2022-09-03T06:36:42;18.40;96.30
3275;DHT22;1649;53.672;10.064;2022-09-03T06:39:08;19.10;94.60
3275;DHT22;1649;53.672;10.064;2022-09-03T06:41:33;19.70;93.50
3275;DHT22;1649;53.672;10.064;2022-09-03T06:44:05;20.30;91.90
3275;DHT22;1649;53.672;10.064;2022-09-03T06:46:33;20.80;91.30
3275;DHT22;1649;53.672;10.064;2022-09-03T06:48:59;21.30;90.30
3275;DHT22;1649;53.672;10.064;2022-09-03T06:51:26;21.80;89.90
3275;DHT22;1649;53.672;10.064;2022-09-03T06:53:57;21.90;87.90
3275;DHT22;1649;53.672;10.064;2022-09-03T06:56:24;22.30;86.60
3275;DHT22;1649;53.672;10.064;2022-09-03T06:58:54;22.50;85.50
3275;DHT22;1649;53.672;10.064;2022-09-03T07:01:24;22.90;84.40
3275;DHT22;1649;53.672;10.064;2022-09-03T07:03:55;22.80;82.60
3275;DHT22;1649;53.672;10.064;2022-09-03T07:06:22;22.20;84.30
3275;DHT22;1649;53.672;10.064;2022-09-03T07:08:48;21.50;84.30
3275;DHT22;1649;53.672;10.064;2022-09-03T07:11:20;21.40;85.70
3275;DHT22;1649;53.672;10.064;2022-09-03T07:13:49;21.20;85.40
3275;DHT22;1649;53.672;10.064;2022-09-03T07:16:27;20.70;85.80
3275;DHT22;1649;53.672;10.064;2022-09-03T07:18:53;20.30;88.10
3275;DHT22;1649;53.672;10.064;2022-09-03T07:21:25;20.30;88.60
3275;DHT22;1649;53.672;10.064;2022-09-03T07:23:52;19.70;89.80
3275;DHT22;1649;53.672;10.064;2022-09-03T07:26:22;19.50;90.10
3275;DHT22;1649;53.672;10.064;2022-09-03T07:28:49;19.40;90.10
3275;DHT22;1649;53.672;10.064;2022-09-03T07:31:19;19.20;90.40
3275;DHT22;1649;53.672;10.064;2022-09-03T07:33:56;18.50;90.90
3275;DHT22;1649;53.672;10.064;2022-09-03T07:36:24;18.40;91.90
3275;DHT22;1649;53.672;10.064;2022-09-03T07:38:53;18.50;92.00
3275;DHT22;1649;53.672;10.064;2022-09-03T07:41:18;18.60;91.40
3275;DHT22;1649;53.672;10.064;2022-09-03T07:43:45;19.20;91.60
3275;DHT22;1649;53.672;10.064;2022-09-03T07:46:24;20.30;91.30
3275;DHT22;1649;53.672;10.064;2022-09-03T07:48:52;21.10;88.30
3275;DHT22;1649;53.672;10.064;2022-09-03T07:51:19;21.60;88.20
3275;DHT22;1649;53.672;10.064;2022-09-03T07:53:46;22.40;85.80
3275;DHT22;1649;53.672;10.064;2022-09-03T07:56:12;22.80;84.50
3275;DHT22;1649;53.672;10.064;2022-09-03T07:58:39;23.20;83.80
3275;DHT22;1649;53.672;10.064;2022-09-03T08:01:14;23.30;83.50
3275;DHT22;1649;53.672;10.064;2022-09-03T08:03:47;23.70;82.60
3275;DHT22;1649;53.672;10.064;2022-09-03T08:06:14;24.20;80.70
3275;DHT22;1649;53.672;10.064;2022-09-03T08:08:40;24.30;78.40
3275;DHT22;1649;53.672;10.064;2022-09-03T08:11:17;24.00;79.90
3275;DHT22;1649;53.672;10.064;2022-09-03T08:13:54;23.80;79.20
3275;DHT22;1649;53.672;10.064;2022-09-03T08:16:21;23.70;79.30
3275;DHT22;1649;53.672;10.064;2022-09-03T08:18:47;23.90;78.90
3275;DHT22;1649;53.672;10.064;2022-09-03T08:21:17;23.70;79.20
3275;DHT22;1649;53.672;10.064;2022-09-03T08:23:46;24.10;79.80
3275;DHT22;1649;53.672;10.064;2022-09-03T08:26:13;24.10;78.50
3275;DHT22;1649;53.672;10.064;2022-09-03T08:28:40;24.20;76.40
3275;DHT22;1649;53.672;10.064;2022-09-03T08:31:15;23.90;77.40
3275;DHT22;1649;53.672;10.064;2022-09-03T08:33:43;23.80;78.00
3275;DHT22;1649;53.672;10.064;2022-09-03T08:36:14;23.70;77.50
3275;DHT22;1649;53.672;10.064;2022-09-03T08:38:42;24.00;77.90
3275;DHT22;1649;53.672;10.064;2022-09-03T08:41:16;24.60;78.40
3275;DHT22;1649;53.672;10.064;2022-09-03T08:44:11;25.00;79.40
3275;DHT22;1649;53.672;10.064;2022-09-03T08:46:46;25.50;76.70
3275;DHT22;1649;53.672;10.064;2022-09-03T08:49:34;25.00;73.50
3275;DHT22;1649;53.672;10.064;2022-09-03T08:52:13;25.40;74.90
3275;DHT22;1649;53.672;10.064;2022-09-03T08:54:43;25.50;73.80
3275;DHT22;1649;53.672;10.064;2022-09-03T08:57:09;26.10;71.70
3275;DHT22;1649;53.672;10.064;2022-09-03T08:59:35;26.00;70.70
3275;DHT22;1649;53.672;10.064;2022-09-03T09:02:19;25.50;71.60
3275;DHT22;1649;53.672;10.064;2022-09-03T09:07:31;25.50;71.90
3275;DHT22;1649;53.672;10.064;2022-09-03T09:10:25;25.60;71.60
3275;DHT22;1649;53.672;10.064;2022-09-03T09:13:04;25.30;70.70
3275;DHT22;1649;53.672;10.064;2022-09-03T09:21:29;24.00;73.00
3275;DHT22;1649;53.672;10.064;2022-09-03T09:24:00;23.40;73.80
3275;DHT22;1649;53.672;10.064;2022-09-03T09:26:28;23.10;74.90
3275;DHT22;1649;53.672;10.064;2022-09-03T09:28:58;22.50;74.30
3275;DHT22;1649;53.672;10.064;2022-09-03T09:31:26;22.20;76.10
3275;DHT22;1649;53.672;10.064;2022-09-03T09:33:59;22.10;78.40
3275;DHT22;1649;53.672;10.064;2022-09-03T09:36:26;22.00;76.50
3275;DHT22;1649;53.672;10.064;2022-09-03T09:38:52;21.70;77.40
3275;DHT22;1649;53.672;10.064;2022-09-03T09:41:20;21.30;78.40
3275;DHT22;1649;53.672;10.064;2022-09-03T09:43:46;21.30;80.00
3275;DHT22;1649;53.672;10.064;2022-09-03T09:46:15;21.50;79.40
3275;DHT22;1649;53.672;10.064;2022-09-03T09:48:50;22.30;80.40
3275;DHT22;1649;53.672;10.064;2022-09-03T09:51:25;23.20;77.20
3275;DHT22;1649;53.672;10.064;2022-09-03T09:54:11;23.80;74.50
3275;DHT22;1649;53.672;10.064;2022-09-03T09:56:37;23.50;72.90
3275;DHT22;1649;53.672;10.064;2022-09-03T09:59:08;23.30;75.90
3275;DHT22;1649;53.672;10.064;2022-09-03T10:01:40;23.40;74.20
3275;DHT22;1649;53.672;10.064;2022-09-03T10:04:22;23.90;74.50
3275;DHT22;1649;53.672;10.064;2022-09-03T10:06:56;24.40;71.70
3275;DHT22;1649;53.672;10.064;2022-09-03T10:09:27;24.70;72.70
3275;DHT22;1649;53.672;10.064;2022-09-03T10:12:20;25.20;67.80
3275;DHT22;1649;53.672;10.064;2022-09-03T10:14:50;25.60;66.30
3275;DHT22;1649;53.672;10.064;2022-09-03T10:20:17;25.30;65.10
3275;DHT22;1649;53.672;10.064;2022-09-03T10:23:10;25.70;65.90
3275;DHT22;1649;53.672;10.064;2022-09-03T10:25:42;25.30;63.10
3275;DHT22;1649;53.672;10.064;2022-09-03T10:28:14;25.40;64.30
3275;DHT22;1649;53.672;10.064;2022-09-03T10:30:55;25.60;64.90
3275;DHT22;1649;53.672;10.064;2022-09-03T10:33:28;25.70;62.10
3275;DHT22;1649;53.672;10.064;2022-09-03T10:36:08;25.80;63.00
3275;DHT22;1649;53.672;10.064;2022-09-03T10:38:35;25.90;63.20
3275;DHT22;1649;53.672;10.064;2022-09-03T10:41:48;25.50;62.20
3275;DHT22;1649;53.672;10.064;2022-09-03T10:47:02;24.40;64.30
3275;DHT22;1649;53.672;10.064;2022-09-03T10:49:44;24.20;62.80
3275;DHT22;1649;53.672;10.064;2022-09-03T11:00:10;24.60;62.00
3275;DHT22;1649;53.672;10.064;2022-09-03T11:05:39;24.20;60.60
3275;DHT22;1649;53.672;10.064;2022-09-03T11:08:43;24.20;61.60
3275;DHT22;1649;53.672;10.064;2022-09-03T11:11:15;24.50;61.00
3275;DHT22;1649;53.672;10.064;2022-09-03T11:13:48;24.40;60.20
3275;DHT22;1649;53.672;10.064;2022-09-03T11:16:20;24.50;60.10
3275;DHT22;1649;53.672;10.064;2022-09-03T11:18:56;24.30;61.30
3275;DHT22;1649;53.672;10.064;2022-09-03T11:21:25;24.40;61.30
3275;DHT22;1649;53.672;10.064;2022-09-03T11:24:25;24.40;60.40
3275;DHT22;1649;53.672;10.064;2022-09-03T11:27:48;24.30;60.90
3275;DHT22;1649;53.672;10.064;2022-09-03T11:30:09;23.80;62.30
3275;DHT22;1649;53.672;10.064;2022-09-03T11:32:55;23.70;63.40
3275;DHT22;1649;53.672;10.064;2022-09-03T11:38:20;24.40;63.10
3275;DHT22;1649;53.672;10.064;2022-09-03T11:48:48;25.40;59.50
3275;DHT22;1649;53.672;10.064;2022-09-03T11:54:03;24.50;59.20
3275;DHT22;1649;53.672;10.064;2022-09-03T11:56:31;24.70;60.20
3275;DHT22;1649;53.672;10.064;2022-09-03T12:01:26;25.00;58.10
3275;DHT22;1649;53.672;10.064;2022-09-03T12:04:04;24.90;58.50
3275;DHT22;1649;53.672;10.064;2022-09-03T12:06:42;24.40;58.80
3275;DHT22;1649;53.672;10.064;2022-09-03T12:11:44;24.40;59.70
3275;DHT22;1649;53.672;10.064;2022-09-03T12:14:35;24.40;58.20
3275;DHT22;1649;53.672;10.064;2022-09-03T12:17:22;24.50;57.60
3275;DHT22;1649;53.672;10.064;2022-09-03T12:19:54;24.30;57.50
3275;DHT22;1649;53.672;10.064;2022-09-03T12:22:22;24.10;57.70
3275;DHT22;1649;53.672;10.064;2022-09-03T12:24:49;24.00;57.50
3275;DHT22;1649;53.672;10.064;2022-09-03T12:27:20;24.30;59.00
3275;DHT22;1649;53.672;10.064;2022-09-03T12:29:55;24.50;56.90
3275;DHT22;1649;53.672;10.064;2022-09-03T12:32:28;24.40;57.10
3275;DHT22;1649;53.672;10.064;2022-09-03T12:34:57;24.30;57.20
3275;DHT22;1649;53.672;10.064;2022-09-03T12:37:25;24.30;57.20
3275;DHT22;1649;53.672;10.064;2022-09-03T12:39:52;24.00;57.80
3275;DHT22;1649;53.672;10.064;2022-09-03T12:42:29;24.10;57.20
3275;DHT22;1649;53.672;10.064;2022-09-03T12:45:06;24.50;57.90
3275;DHT22;1649;53.672;10.064;2022-09-03T12:47:38;24.90;57.30
3275;DHT22;1649;53.672;10.064;2022-09-03T12:50:10;25.20;57.20
3275;DHT22;1649;53.672;10.064;2022-09-03T12:52:42;25.40;56.60
3275;DHT22;1649;53.672;10.064;2022-09-03T12:55:35;24.80;55.80
3275;DHT22;1649;53.672;10.064;2022-09-03T12:58:09;24.80;56.60
3275;DHT22;1649;53.672;10.064;2022-09-03T13:00:41;24.50;57.00
3275;DHT22;1649;53.672;10.064;2022-09-03T13:06:21;24.60;56.00
3275;DHT22;1649;53.672;10.064;2022-09-03T13:09:00;24.40;55.90
3275;DHT22;1649;53.672;10.064;2022-09-03T13:11:26;24.50;56.60
3275;DHT22;1649;53.672;10.064;2022-09-03T13:14:07;24.30;55.60
3275;DHT22;1649;53.672;10.064;2022-09-03T13:16:45;24.40;56.20
3275;DHT22;1649;53.672;10.064;2022-09-03T13:22:25;24.70;56.00
3275;DHT22;1649;53.672;10.064;2022-09-03T13:30:19;23.70;56.30
3275;DHT22;1649;53.672;10.064;2022-09-03T13:43:36;24.20;56.30
3275;DHT22;1649;53.672;10.064;2022-09-03T13:52:02;24.00;57.10
3275;DHT22;1649;53.672;10.064;2022-09-03T13:54:43;24.00;56.50
3275;DHT22;1649;53.672;10.064;2022-09-03T14:00:03;24.20;55.80
3275;DHT22;1649;53.672;10.064;2022-09-03T14:09:11;23.70;57.30
3275;DHT22;1649;53.672;10.064;2022-09-03T14:14:52;23.80;56.40
3275;DHT22;1649;53.672;10.064;2022-09-03T14:17:35;23.60;56.60
3275;DHT22;1649;53.672;10.064;2022-09-03T14:20:11;23.40;57.20
3275;DHT22;1649;53.672;10.064;2022-09-03T14:23:02;23.40;56.60
3275;DHT22;1649;53.672;10.064;2022-09-03T14:25:30;23.40;56.40
3275;DHT22;1649;53.672;10.064;2022-09-03T14:28:14;23.30;56.20
3275;DHT22;1649;53.672;10.064;2022-09-03T14:31:00;23.30;56.60
3275;DHT22;1649;53.672;10.064;2022-09-03T14:33:51;23.40;57.30
3275;DHT22;1649;53.672;10.064;2022-09-03T14:39:33;23.90;56.10
3275;DHT22;1649;53.672;10.064;2022-09-03T14:47:45;23.60;55.30
3275;DHT22;1649;53.672;10.064;2022-09-03T14:50:40;23.60;55.90
3275;DHT22;1649;53.672;10.064;2022-09-03T14:53:49;23.50;56.50
3275;DHT22;1649;53.672;10.064;2022-09-03T15:00:01;23.50;56.00
3275;DHT22;1649;53.672;10.064;2022-09-03T15:03:02;23.40;55.80
3275;DHT22;1649;53.672;10.064;2022-09-03T15:11:23;23.20;55.60
3275;DHT22;1649;53.672;10.064;2022-09-03T15:16:46;23.10;55.70
3275;DHT22;1649;53.672;10.064;2022-09-03T15:19:47;23.10;55.70
3275;DHT22;1649;53.672;10.064;2022-09-03T15:28:14;23.20;55.10
3275;DHT22;1649;53.672;10.064;2022-09-03T15:31:00;23.20;56.00
3275;DHT22;1649;53.672;10.064;2022-09-03T15:33:45;23.20;55.90
3275;DHT22;1649;53.672;10.064;2022-09-03T15:36:33;23.10;55.70
3275;DHT22;1649;53.672;10.064;2022-09-03T15:39:04;23.10;56.20
3275;DHT22;1649;53.672;10.064;2022-09-03T15:41:43;23.00;56.20
3275;DHT22;1649;53.672;10.064;2022-09-03T15:44:16;22.90;56.20
3275;DHT22;1649;53.672;10.064;2022-09-03T15:55:09;22.90;56.10
3275;DHT22;1649;53.672;10.064;2022-09-03T15:57:58;22.70;56.10
3275;DHT22;1649;53.672;10.064;2022-09-03T16:00:59;22.80;56.70
3275;DHT22;1649;53.672;10.064;2022-09-03T16:03:46;22.60;56.20
3275;DHT22;1649;53.672;10.064;2022-09-03T16:06:37;22.40;56.90
3275;DHT22;1649;53.672;10.064;2022-09-03T16:15:12;22.20;57.70
3275;DHT22;1649;53.672;10.064;2022-09-03T16:20:42;22.00;57.90
3275;DHT22;1649;53.672;10.064;2022-09-03T16:23:26;21.90;58.00
3275;DHT22;1649;53.672;10.064;2022-09-03T16:25:56;21.80;58.70
3275;DHT22;1649;53.672;10.064;2022-09-03T16:28:43;21.70;58.30
3275;DHT22;1649;53.672;10.064;2022-09-03T16:31:14;21.60;58.70
3275;DHT22;1649;53.672;10.064;2022-09-03T16:53:34;21.30;60.00
3275;DHT22;1649;53.672;10.064;2022-09-03T16:59:17;21.20;61.40
3275;DHT22;1649;53.672;10.064;2022-09-03T17:01:50;21.00;62.90
3275;DHT22;1649;53.672;10.064;2022-09-03T17:04:52;20.90;63.10
3275;DHT22;1649;53.672;10.064;2022-09-03T17:07:55;20.80;64.20
3275;DHT22;1649;53.672;10.064;2022-09-03T17:10:58;20.70;64.20
3275;DHT22;1649;53.672;10.064;2022-09-03T17:16:50;20.50;63.90
3275;DHT22;1649;53.672;10.064;2022-09-03T17:19:44;20.40;64.70
3275;DHT22;1649;53.672;10.064;2022-09-03T17:25:01;20.20;64.40
3275;DHT22;1649;53.672;10.064;2022-09-03T17:27:49;20.10;64.20
3275;DHT22;1649;53.672;10.064;2022-09-03T17:33:10;20.10;65.10
3275;DHT22;1649;53.672;10.064;2022-09-03T17:36:23;20.00;65.10
3275;DHT22;1649;53.672;10.064;2022-09-03T17:39:02;19.90;65.90
3275;DHT22;1649;53.672;10.064;2022-09-03T17:50:12;19.60;66.60
3275;DHT22;1649;53.672;10.064;2022-09-03T17:52:43;19.50;66.60
3275;DHT22;1649;53.672;10.064;2022-09-03T17:58:18;19.30;68.30
3275;DHT22;1649;53.672;10.064;2022-09-03T18:03:31;19.20;70.20
3275;DHT22;1649;53.672;10.064;2022-09-03T18:06:07;19.10;68.10
3275;DHT22;1649;53.672;10.064;2022-09-03T18:08:48;19.00;68.90
3275;DHT22;1649;53.672;10.064;2022-09-03T18:11:36;19.00;70.00
3275;DHT22;1649;53.672;10.064;2022-09-03T18:16:58;18.90;70.90
3275;DHT22;1649;53.672;10.064;2022-09-03T18:22:32;18.70;72.10
3275;DHT22;1649;53.672;10.064;2022-09-03T18:25:22;18.70;73.10
3275;DHT22;1649;53.672;10.064;2022-09-03T18:28:09;18.60;72.80
3275;DHT22;1649;53.672;10.064;2022-09-03T18:30:55;18.60;73.80
3275;DHT22;1649;53.672;10.064;2022-09-03T18:33:39;18.60;75.10
3275;DHT22;1649;53.672;10.064;2022-09-03T18:36:23;18.50;74.00
3275;DHT22;1649;53.672;10.064;2022-09-03T18:39:22;18.40;74.70
3275;DHT22;1649;53.672;10.064;2022-09-03T18:42:22;18.40;77.00
3275;DHT22;1649;53.672;10.064;2022-09-03T18:51:44;18.10;77.20
3275;DHT22;1649;53.672;10.064;2022-09-03T18:55:19;18.00;78.30
3275;DHT22;1649;53.672;10.064;2022-09-03T19:01:00;17.90;80.70
3275;DHT22;1649;53.672;10.064;2022-09-03T19:07:10;17.70;81.50
3275;DHT22;1649;53.672;10.064;2022-09-03T19:10:02;17.70;81.60
3275;DHT22;1649;53.672;10.064;2022-09-03T19:16:08;17.60;82.20
3275;DHT22;1649;53.672;10.064;2022-09-03T19:21:52;17.40;82.50
3275;DHT22;1649;53.672;10.064;2022-09-03T19:24:37;17.30;83.50
3275;DHT22;1649;53.672;10.064;2022-09-03T19:27:34;17.30;83.70
3275;DHT22;1649;53.672;10.064;2022-09-03T19:36:36;17.10;83.80
3275;DHT22;1649;53.672;10.064;2022-09-03T19:46:28;16.80;85.90
3275;DHT22;1649;53.672;10.064;2022-09-03T19:55:11;16.60;87.50
3275;DHT22;1649;53.672;10.064;2022-09-03T19:57:59;16.60;88.90
3275;DHT22;1649;53.672;10.064;2022-09-03T20:00:45;16.70;88.60
3275;DHT22;1649;53.672;10.064;2022-09-03T20:03:29;16.60;86.80
3275;DHT22;1649;53.672;10.064;2022-09-03T20:06:15;16.60;88.90
3275;DHT22;1649;53.672;10.064;2022-09-03T20:09:06;16.60;89.90
3275;DHT22;1649;53.672;10.064;2022-09-03T20:11:55;16.50;89.80
3275;DHT22;1649;53.672;10.064;2022-09-03T20:14:22;16.50;90.00
3275;DHT22;1649;53.672;10.064;2022-09-03T20:20:09;16.40;89.80
3275;DHT22;1649;53.672;10.064;2022-09-03T20:23:03;16.30;90.20
3275;DHT22;1649;53.672;10.064;2022-09-03T20:30:53;16.20;91.10
3275;DHT22;1649;53.672;10.064;2022-09-03T20:39:10;16.20;91.00
3275;DHT22;1649;53.672;10.064;2022-09-03T20:47:35;16.10;90.90
3275;DHT22;1649;53.672;10.064;2022-09-03T20:53:27;15.90;91.70
3275;DHT22;1649;53.672;10.064;2022-09-03T20:56:02;15.90;92.50
3275;DHT22;1649;53.672;10.064;2022-09-03T21:01:37;15.90;92.70
3275;DHT22;1649;53.672;10.064;2022-09-03T21:06:58;15.90;93.40
3275;DHT22;1649;53.672;10.064;2022-09-03T21:12:27;15.90;94.00
3275;DHT22;1649;53.672;10.064;2022-09-03T21:17:36;15.90;94.60
3275;DHT22;1649;53.672;10.064;2022-09-03T21:25:44;15.90;95.90
3275;DHT22;1649;53.672;10.064;2022-09-03T21:28:16;15.90;96.40